createdAt,value
2016-01-30T00:00:31.013Z,0
2016-01-30T00:01:30.953Z,0
2016-01-30T00:02:30.926Z,0
2016-01-30T00:03:36.943Z,0
2016-01-30T00:04:33.946Z,0
2016-01-30T00:05:30.903Z,0
2016-01-30T00:06:30.891Z,0
2016-01-30T00:07:30.563Z,0
2016-01-30T00:08:30.566Z,0
2016-01-30T00:09:30.585Z,0
2016-01-30T00:10:30.588Z,0
2016-01-30T00:11:30.560Z,0
2016-01-30T00:12:30.641Z,0
2016-01-30T00:13:30.568Z,0
2016-01-30T00:14:30.571Z,0
2016-01-30T00:15:30.621Z,0
2016-01-30T00:16:30.562Z,0
2016-01-30T00:17:31.064Z,0
2016-01-30T00:18:30.551Z,0
2016-01-30T00:19:30.866Z,0
2016-01-30T00:20:30.917Z,0
2016-01-30T00:21:30.560Z,0
2016-01-30T00:22:30.531Z,0
2016-01-30T00:23:30.550Z,0
2016-01-30T00:24:30.556Z,0
2016-01-30T00:25:30.606Z,0
2016-01-30T00:26:30.531Z,0
2016-01-30T00:27:30.612Z,0
2016-01-30T00:28:30.553Z,0
2016-01-30T00:29:30.541Z,0
2016-01-30T00:30:30.637Z,0
2016-01-30T00:31:30.578Z,0
2016-01-30T00:32:30.506Z,0
2016-01-30T00:33:30.541Z,0
2016-01-30T00:34:30.559Z,0
2016-01-30T00:35:30.562Z,0
2016-01-30T00:36:30.525Z,0
2016-01-30T00:37:30.513Z,0
2016-01-30T00:38:30.577Z,0
2016-01-30T00:39:30.565Z,0
2016-01-30T00:40:30.568Z,0
2016-01-30T00:41:30.507Z,0
2016-01-30T00:42:30.510Z,0
2016-01-30T00:43:30.562Z,0
2016-01-30T00:44:30.517Z,0
2016-01-30T00:45:30.598Z,0
2016-01-30T00:46:30.529Z,0
2016-01-30T00:47:30.812Z,0
2016-01-30T00:48:31.284Z,0
2016-01-30T00:49:34.224Z,0
2016-01-30T00:50:30.961Z,0
2016-01-30T00:51:34.184Z,0
2016-01-30T00:52:30.812Z,0
2016-01-30T00:53:33.893Z,0
2016-01-30T00:54:30.958Z,0
2016-01-30T00:55:30.945Z,0
2016-01-30T00:56:30.963Z,0
2016-01-30T00:57:31.091Z,0
2016-01-30T00:58:31.031Z,0
2016-01-30T00:59:30.987Z,0
2016-01-30T01:00:33.787Z,0
2016-01-30T01:01:30.824Z,0
2016-01-30T01:02:30.920Z,0
2016-01-30T01:03:30.912Z,0
2016-01-30T01:04:30.499Z,0
2016-01-30T01:05:30.486Z,0
2016-01-30T01:06:30.430Z,0
2016-01-30T01:07:30.448Z,0
2016-01-30T01:08:30.436Z,0
2016-01-30T01:09:30.473Z,0
2016-01-30T01:10:30.446Z,0
2016-01-30T01:11:30.434Z,0
2016-01-30T01:12:30.420Z,0
2016-01-30T01:13:30.423Z,0
2016-01-30T01:14:30.412Z,0
2016-01-30T01:15:30.398Z,0
2016-01-30T01:16:30.405Z,0
2016-01-30T01:17:30.439Z,0
2016-01-30T01:18:30.395Z,0
2016-01-30T01:19:30.397Z,0
2016-01-30T01:20:30.401Z,0
2016-01-30T01:21:30.684Z,0
2016-01-30T01:22:30.391Z,0
2016-01-30T01:23:30.378Z,0
2016-01-30T01:24:30.382Z,0
2016-01-30T01:25:30.446Z,0
2016-01-30T01:26:30.356Z,0
2016-01-30T01:27:30.390Z,0
2016-01-30T01:28:30.361Z,0
2016-01-30T01:29:30.349Z,0
2016-01-30T01:30:30.383Z,0
2016-01-30T01:31:30.355Z,0
2016-01-30T01:32:30.404Z,0
2016-01-30T01:33:30.361Z,0
2016-01-30T01:34:30.348Z,0
2016-01-30T01:35:30.413Z,0
2016-01-30T01:36:30.356Z,0
2016-01-30T01:37:30.345Z,0
2016-01-30T01:38:30.378Z,0
2016-01-30T01:39:30.351Z,0
2016-01-30T01:40:30.338Z,0
2016-01-30T01:41:30.340Z,0
2016-01-30T01:42:30.343Z,0
2016-01-30T01:43:30.184Z,0
2016-01-30T01:44:30.327Z,0
2016-01-30T01:45:30.425Z,0
2016-01-30T01:46:30.318Z,0
2016-01-30T01:47:30.290Z,0
2016-01-30T01:48:30.308Z,0
2016-01-30T01:49:30.327Z,0
2016-01-30T01:50:30.330Z,0
2016-01-30T01:51:30.301Z,0
2016-01-30T01:52:30.320Z,0
2016-01-30T01:53:30.323Z,0
2016-01-30T01:54:30.373Z,0
2016-01-30T01:55:30.376Z,0
2016-01-30T01:56:30.332Z,0
2016-01-30T01:57:30.304Z,0
2016-01-30T01:58:30.292Z,0
2016-01-30T01:59:30.514Z,0
2016-01-30T02:00:30.392Z,0
2016-01-30T02:01:30.316Z,0
2016-01-30T02:02:30.288Z,0
2016-01-30T02:03:30.291Z,0
2016-01-30T02:04:30.278Z,0
2016-01-30T02:05:30.108Z,0
2016-01-30T02:06:30.283Z,0
2016-01-30T02:07:30.304Z,0
2016-01-30T02:08:30.322Z,0
2016-01-30T02:09:30.262Z,0
2016-01-30T02:10:30.374Z,0
2016-01-30T02:11:30.673Z,0
2016-01-30T02:12:30.630Z,0
2016-01-30T02:13:33.945Z,0
2016-01-30T02:14:33.838Z,0
2016-01-30T02:15:31.248Z,0
2016-01-30T02:16:31.079Z,0
2016-01-30T02:17:31.145Z,0
2016-01-30T02:18:31.539Z,0
2016-01-30T02:19:31.448Z,0
2016-01-30T02:20:30.950Z,0
2016-01-30T02:21:31.156Z,0
2016-01-30T02:22:30.221Z,0
2016-01-30T02:23:30.223Z,0
2016-01-30T02:24:30.539Z,0
2016-01-30T02:25:30.480Z,0
2016-01-30T02:26:30.545Z,0
2016-01-30T02:27:30.532Z,0
2016-01-30T02:28:30.567Z,0
2016-01-30T02:29:30.556Z,0
2016-01-30T02:30:30.621Z,0
2016-01-30T02:31:30.749Z,0
2016-01-30T02:32:30.470Z,0
2016-01-30T02:33:33.989Z,0
2016-01-30T02:34:30.213Z,0
2016-01-30T02:35:30.262Z,0
2016-01-30T02:36:30.203Z,0
2016-01-30T02:37:30.206Z,0
2016-01-30T02:38:30.178Z,0
2016-01-30T02:39:30.181Z,0
2016-01-30T02:40:30.199Z,0
2016-01-30T02:41:30.171Z,0
2016-01-30T02:42:30.206Z,0
2016-01-30T02:43:30.161Z,0
2016-01-30T02:44:30.150Z,0
2016-01-30T02:45:30.246Z,0
2016-01-30T02:46:30.155Z,0
2016-01-30T02:47:30.173Z,0
2016-01-30T02:48:30.165Z,0
2016-01-30T02:49:30.167Z,0
2016-01-30T02:50:30.185Z,0
2016-01-30T02:51:30.141Z,0
2016-01-30T02:52:30.128Z,0
2016-01-30T02:53:30.193Z,0
2016-01-30T02:54:30.124Z,0
2016-01-30T02:55:30.132Z,0
2016-01-30T02:56:30.093Z,0
2016-01-30T02:57:30.116Z,0
2016-01-30T02:58:30.077Z,0
2016-01-30T02:59:30.094Z,0
2016-01-30T03:00:30.203Z,0
2016-01-30T03:01:30.045Z,0
2016-01-30T03:02:30.045Z,0
2016-01-30T03:03:30.061Z,0
2016-01-30T03:04:30.062Z,0
2016-01-30T03:05:30.110Z,0
2016-01-30T03:06:30.033Z,0
2016-01-30T03:07:30.007Z,0
2016-01-30T03:08:30.024Z,0
2016-01-30T03:09:30.073Z,0
2016-01-30T03:10:30.013Z,0
2016-01-30T03:11:30.018Z,0
2016-01-30T03:12:30.020Z,0
2016-01-30T03:13:30.039Z,0
2016-01-30T03:14:30.013Z,0
2016-01-30T03:15:30.032Z,0
2016-01-30T03:16:30.034Z,0
2016-01-30T03:17:29.987Z,0
2016-01-30T03:18:30.037Z,0
2016-01-30T03:19:29.994Z,0
2016-01-30T03:20:30.043Z,0
2016-01-30T03:21:29.967Z,0
2016-01-30T03:22:29.833Z,0
2016-01-30T03:23:29.991Z,0
2016-01-30T03:24:29.963Z,0
2016-01-30T03:25:30.028Z,0
2016-01-30T03:26:29.970Z,0
2016-01-30T03:27:29.987Z,0
2016-01-30T03:28:29.989Z,0
2016-01-30T03:29:29.946Z,0
2016-01-30T03:30:30.062Z,0
2016-01-30T03:31:29.940Z,0
2016-01-30T03:32:29.927Z,0
2016-01-30T03:33:29.976Z,0
2016-01-30T03:34:29.932Z,0
2016-01-30T03:35:29.937Z,0
2016-01-30T03:36:29.908Z,0
2016-01-30T03:37:29.913Z,0
2016-01-30T03:38:29.947Z,0
2016-01-30T03:39:29.909Z,0
2016-01-30T03:40:29.896Z,0
2016-01-30T03:41:29.899Z,0
2016-01-30T03:42:29.934Z,0
2016-01-30T03:43:29.890Z,0
2016-01-30T03:44:29.877Z,0
2016-01-30T03:45:29.911Z,0
2016-01-30T03:46:29.899Z,0
2016-01-30T03:47:29.870Z,0
2016-01-30T03:48:29.905Z,0
2016-01-30T03:49:29.736Z,0
2016-01-30T03:50:29.895Z,0
2016-01-30T03:51:29.881Z,0
2016-01-30T03:52:29.853Z,0
2016-01-30T03:53:29.872Z,0
2016-01-30T03:54:29.859Z,0
2016-01-30T03:55:29.861Z,0
2016-01-30T03:56:29.849Z,0
2016-01-30T03:57:29.852Z,0
2016-01-30T03:58:29.839Z,0
2016-01-30T03:59:29.841Z,0
2016-01-30T04:00:29.908Z,0
2016-01-30T04:01:29.833Z,0
2016-01-30T04:02:29.835Z,0
2016-01-30T04:03:29.854Z,0
2016-01-30T04:04:29.858Z,0
2016-01-30T04:05:29.830Z,0
2016-01-30T04:06:29.864Z,0
2016-01-30T04:07:29.803Z,0
2016-01-30T04:08:29.841Z,0
2016-01-30T04:09:29.844Z,0
2016-01-30T04:10:29.830Z,0
2016-01-30T04:11:29.788Z,0
2016-01-30T04:12:29.791Z,0
2016-01-30T04:13:29.793Z,0
2016-01-30T04:14:29.780Z,0
2016-01-30T04:15:29.846Z,0
2016-01-30T04:16:29.801Z,0
2016-01-30T04:17:29.773Z,0
2016-01-30T04:18:29.776Z,0
2016-01-30T04:19:29.763Z,0
2016-01-30T04:20:29.796Z,0
2016-01-30T04:21:29.752Z,0
2016-01-30T04:22:29.739Z,0
2016-01-30T04:23:29.793Z,0
2016-01-30T04:24:29.639Z,0
2016-01-30T04:25:29.861Z,0
2016-01-30T04:26:29.785Z,0
2016-01-30T04:27:29.762Z,0
2016-01-30T04:28:29.702Z,0
2016-01-30T04:29:29.704Z,0
2016-01-30T04:30:29.770Z,0
2016-01-30T04:31:29.744Z,0
2016-01-30T04:32:29.531Z,0
2016-01-30T04:33:29.706Z,0
2016-01-30T04:34:29.712Z,0
2016-01-30T04:35:29.761Z,0
2016-01-30T04:36:29.733Z,0
2016-01-30T04:37:29.704Z,0
2016-01-30T04:38:29.738Z,0
2016-01-30T04:39:29.678Z,0
2016-01-30T04:40:29.697Z,0
2016-01-30T04:41:29.653Z,0
2016-01-30T04:42:29.519Z,0
2016-01-30T04:43:29.663Z,0
2016-01-30T04:44:29.635Z,0
2016-01-30T04:45:29.653Z,0
2016-01-30T04:46:29.672Z,0
2016-01-30T04:47:29.628Z,0
2016-01-30T04:48:29.630Z,0
2016-01-30T04:49:29.633Z,0
2016-01-30T04:50:29.667Z,0
2016-01-30T04:51:29.608Z,0
2016-01-30T04:52:29.611Z,0
2016-01-30T04:53:29.613Z,0
2016-01-30T04:54:29.632Z,0
2016-01-30T04:55:29.668Z,0
2016-01-30T04:56:29.638Z,0
2016-01-30T04:57:29.626Z,0
2016-01-30T04:58:29.659Z,0
2016-01-30T04:59:29.570Z,0
2016-01-30T05:00:29.667Z,0
2016-01-30T05:01:29.595Z,0
2016-01-30T05:02:29.567Z,0
2016-01-30T05:03:29.585Z,0
2016-01-30T05:04:29.604Z,0
2016-01-30T05:05:29.639Z,0
2016-01-30T05:06:29.561Z,0
2016-01-30T05:07:29.548Z,0
2016-01-30T05:08:29.583Z,0
2016-01-30T05:09:29.573Z,0
2016-01-30T05:10:29.544Z,0
2016-01-30T05:11:29.531Z,0
2016-01-30T05:12:29.550Z,0
2016-01-30T05:13:29.524Z,0
2016-01-30T05:14:29.512Z,0
2016-01-30T05:15:29.561Z,0
2016-01-30T05:16:29.564Z,0
2016-01-30T05:17:29.519Z,0
2016-01-30T05:18:29.524Z,0
2016-01-30T05:19:29.541Z,0
2016-01-30T05:20:29.502Z,0
2016-01-30T05:21:29.521Z,0
2016-01-30T05:22:29.508Z,0
2016-01-30T05:23:29.510Z,0
2016-01-30T05:24:29.513Z,0
2016-01-30T05:25:29.515Z,0
2016-01-30T05:26:29.518Z,0
2016-01-30T05:27:29.490Z,0
2016-01-30T05:28:29.492Z,0
2016-01-30T05:29:29.480Z,0
2016-01-30T05:30:29.482Z,0
2016-01-30T05:31:29.611Z,0
2016-01-30T05:32:29.457Z,0
2016-01-30T05:33:29.477Z,0
2016-01-30T05:34:29.480Z,0
2016-01-30T05:35:29.466Z,0
2016-01-30T05:36:29.438Z,0
2016-01-30T05:37:29.442Z,0
2016-01-30T05:38:29.428Z,0
2016-01-30T05:39:29.432Z,0
2016-01-30T05:40:29.435Z,0
2016-01-30T05:41:29.423Z,0
2016-01-30T05:42:29.425Z,0
2016-01-30T05:43:29.426Z,0
2016-01-30T05:44:29.412Z,0
2016-01-30T05:45:29.477Z,0
2016-01-30T05:46:29.418Z,0
2016-01-30T05:47:29.500Z,0
2016-01-30T05:48:29.487Z,0
2016-01-30T05:49:29.397Z,0
2016-01-30T05:50:29.430Z,0
2016-01-30T05:51:29.370Z,0
2016-01-30T05:52:29.374Z,0
2016-01-30T05:53:29.376Z,0
2016-01-30T05:54:29.379Z,0
2016-01-30T05:55:29.414Z,0
2016-01-30T05:56:29.340Z,0
2016-01-30T05:57:29.375Z,0
2016-01-30T05:58:29.347Z,0
2016-01-30T05:59:29.350Z,0
2016-01-30T06:00:29.384Z,0
2016-01-30T06:01:29.371Z,0
2016-01-30T06:02:29.327Z,0
2016-01-30T06:03:29.345Z,0
2016-01-30T06:04:29.348Z,0
2016-01-30T06:05:29.351Z,0
2016-01-30T06:06:29.310Z,0
2016-01-30T06:07:29.312Z,0
2016-01-30T06:08:29.316Z,0
2016-01-30T06:09:29.334Z,0
2016-01-30T06:10:29.322Z,0
2016-01-30T06:11:29.294Z,0
2016-01-30T06:12:29.296Z,0
2016-01-30T06:13:29.299Z,0
2016-01-30T06:14:29.286Z,0
2016-01-30T06:15:29.310Z,0
2016-01-30T06:16:29.282Z,0
2016-01-30T06:17:29.273Z,0
2016-01-30T06:18:29.276Z,0
2016-01-30T06:19:29.279Z,0
2016-01-30T06:20:29.251Z,0
2016-01-30T06:21:29.271Z,0
2016-01-30T06:22:29.226Z,0
2016-01-30T06:23:29.245Z,0
2016-01-30T06:24:29.248Z,0
2016-01-30T06:25:29.297Z,0
2016-01-30T06:26:29.238Z,0
2016-01-30T06:27:29.241Z,0
2016-01-30T06:28:29.274Z,0
2016-01-30T06:29:29.278Z,0
2016-01-30T06:30:29.359Z,0
2016-01-30T06:31:29.221Z,0
2016-01-30T06:32:29.239Z,0
2016-01-30T06:33:29.195Z,0
2016-01-30T06:34:29.214Z,0
2016-01-30T06:35:29.342Z,0
2016-01-30T06:36:29.188Z,0
2016-01-30T06:37:29.191Z,0
2016-01-30T06:38:29.198Z,0
2016-01-30T06:39:29.168Z,0
2016-01-30T06:40:29.218Z,0
2016-01-30T06:41:29.237Z,0
2016-01-30T06:42:29.176Z,0
2016-01-30T06:43:29.148Z,0
2016-01-30T06:44:29.151Z,0
2016-01-30T06:45:29.233Z,0
2016-01-30T06:46:29.158Z,0
2016-01-30T06:47:29.145Z,0
2016-01-30T06:48:29.163Z,5
2016-01-30T06:49:29.155Z,5
2016-01-30T06:50:29.158Z,5
2016-01-30T06:51:29.129Z,5
2016-01-30T06:52:29.117Z,5
2016-01-30T06:53:29.136Z,5
2016-01-30T06:54:29.123Z,5
2016-01-30T06:55:34.469Z,10
2016-01-30T06:56:29.110Z,10
2016-01-30T06:57:29.097Z,10
2016-01-30T06:58:29.116Z,10
2016-01-30T06:59:29.134Z,10
2016-01-30T07:00:29.168Z,10
2016-01-30T07:01:29.124Z,15
2016-01-30T07:02:29.080Z,15
2016-01-30T07:03:29.066Z,15
2016-01-30T07:04:29.116Z,15
2016-01-30T07:05:29.104Z,20
2016-01-30T07:06:29.091Z,20
2016-01-30T07:07:29.062Z,20
2016-01-30T07:08:29.066Z,20
2016-01-30T07:09:29.069Z,25
2016-01-30T07:10:29.072Z,25
2016-01-30T07:11:28.886Z,25
2016-01-30T07:12:29.093Z,25
2016-01-30T07:13:29.159Z,30
2016-01-30T07:14:29.037Z,30
2016-01-30T07:15:29.040Z,35
2016-01-30T07:16:29.044Z,35
2016-01-30T07:17:29.017Z,35
2016-01-30T07:18:29.037Z,35
2016-01-30T07:19:29.008Z,35
2016-01-30T07:20:29.011Z,40
2016-01-30T07:21:29.030Z,40
2016-01-30T07:22:29.020Z,45
2016-01-30T07:23:29.008Z,45
2016-01-30T07:24:28.994Z,50
2016-01-30T07:25:28.982Z,50
2016-01-30T07:26:28.999Z,55
2016-01-30T07:27:28.988Z,55
2016-01-30T07:28:29.006Z,55
2016-01-30T07:29:28.962Z,60
2016-01-30T07:30:29.043Z,65
2016-01-30T07:31:28.988Z,65
2016-01-30T07:32:28.959Z,65
2016-01-30T07:33:28.962Z,70
2016-01-30T07:34:28.980Z,70
2016-01-30T07:35:28.998Z,75
2016-01-30T07:36:28.969Z,75
2016-01-30T07:37:28.973Z,80
2016-01-30T07:38:28.975Z,80
2016-01-30T07:39:28.977Z,85
2016-01-30T07:40:29.042Z,90
2016-01-30T07:41:28.971Z,90
2016-01-30T07:42:28.974Z,90
2016-01-30T07:43:28.992Z,90
2016-01-30T07:44:28.948Z,95
2016-01-30T07:45:28.967Z,90
2016-01-30T07:46:28.946Z,90
2016-01-30T07:47:28.949Z,90
2016-01-30T07:48:28.952Z,85
2016-01-30T07:49:28.955Z,85
2016-01-30T07:50:29.005Z,85
2016-01-30T07:51:28.945Z,85
2016-01-30T07:52:28.948Z,85
2016-01-30T07:53:28.982Z,90
2016-01-30T07:54:28.954Z,90
2016-01-30T07:55:28.800Z,90
2016-01-30T07:56:28.945Z,95
2016-01-30T07:57:28.947Z,95
2016-01-30T07:58:28.950Z,95
2016-01-30T07:59:28.937Z,95
2016-01-30T08:00:29.017Z,95
2016-01-30T08:01:28.973Z,95
2016-01-30T08:02:28.945Z,95
2016-01-30T08:03:28.932Z,95
2016-01-30T08:04:28.981Z,95
2016-01-30T08:05:28.938Z,95
2016-01-30T08:06:28.955Z,95
2016-01-30T08:07:28.943Z,95
2016-01-30T08:08:28.930Z,95
2016-01-30T08:09:28.934Z,95
2016-01-30T08:10:28.998Z,95
2016-01-30T08:11:28.939Z,95
2016-01-30T08:12:28.926Z,95
2016-01-30T08:13:28.946Z,100
2016-01-30T08:14:29.074Z,100
2016-01-30T08:15:28.982Z,100
2016-01-30T08:16:28.958Z,100
2016-01-30T08:17:28.960Z,95
2016-01-30T08:18:28.947Z,95
2016-01-30T08:19:28.934Z,100
2016-01-30T08:20:29.046Z,100
2016-01-30T08:21:28.924Z,100
2016-01-30T08:22:29.021Z,105
2016-01-30T08:23:28.929Z,100
2016-01-30T08:24:28.932Z,100
2016-01-30T08:25:28.996Z,100
2016-01-30T08:26:28.937Z,100
2016-01-30T08:27:28.940Z,90
2016-01-30T08:28:28.961Z,95
2016-01-30T08:29:28.933Z,95
2016-01-30T08:30:28.921Z,95
2016-01-30T08:31:28.955Z,95
2016-01-30T08:32:28.967Z,100
2016-01-30T08:33:28.938Z,105
2016-01-30T08:34:28.956Z,105
2016-01-30T08:35:28.975Z,105
2016-01-30T08:36:28.915Z,100
2016-01-30T08:37:28.964Z,100
2016-01-30T08:38:28.904Z,95
2016-01-30T08:39:28.923Z,95
2016-01-30T08:40:28.989Z,95
2016-01-30T08:41:28.958Z,95
2016-01-30T08:42:28.977Z,100
2016-01-30T08:43:28.917Z,100
2016-01-30T08:44:28.920Z,100
2016-01-30T08:45:28.922Z,105
2016-01-30T08:46:28.941Z,105
2016-01-30T08:47:28.927Z,110
2016-01-30T08:48:28.930Z,110
2016-01-30T08:49:28.776Z,115
2016-01-30T08:50:28.950Z,115
2016-01-30T08:51:28.940Z,115
2016-01-30T08:52:28.943Z,120
2016-01-30T08:53:28.930Z,125
2016-01-30T08:54:28.934Z,125
2016-01-30T08:55:28.953Z,130
2016-01-30T08:56:28.940Z,130
2016-01-30T08:57:28.957Z,135
2016-01-30T08:58:28.976Z,140
2016-01-30T08:59:28.932Z,140
2016-01-30T09:00:28.935Z,140
2016-01-30T09:01:28.938Z,145
2016-01-30T09:02:28.987Z,145
2016-01-30T09:03:28.974Z,150
2016-01-30T09:04:28.929Z,150
2016-01-30T09:05:28.965Z,155
2016-01-30T09:06:28.940Z,160
2016-01-30T09:07:28.974Z,160
2016-01-30T09:08:28.945Z,165
2016-01-30T09:09:28.964Z,165
2016-01-30T09:10:28.950Z,170
2016-01-30T09:11:28.969Z,165
2016-01-30T09:12:28.958Z,165
2016-01-30T09:13:28.961Z,170
2016-01-30T09:14:28.940Z,170
2016-01-30T09:15:28.959Z,175
2016-01-30T09:16:28.962Z,195
2016-01-30T09:17:28.979Z,195
2016-01-30T09:18:28.951Z,190
2016-01-30T09:19:28.948Z,180
2016-01-30T09:20:28.957Z,190
2016-01-30T09:21:28.960Z,195
2016-01-30T09:22:28.978Z,195
2016-01-30T09:23:28.950Z,190
2016-01-30T09:24:28.968Z,185
2016-01-30T09:25:29.801Z,180
2016-01-30T09:26:28.991Z,165
2016-01-30T09:27:28.993Z,165
2016-01-30T09:28:28.996Z,175
2016-01-30T09:29:29.016Z,180
2016-01-30T09:30:28.988Z,175
2016-01-30T09:31:28.991Z,165
2016-01-30T09:32:28.994Z,150
2016-01-30T09:33:28.981Z,160
2016-01-30T09:34:28.989Z,160
2016-01-30T09:35:29.008Z,170
2016-01-30T09:36:28.978Z,170
2016-01-30T09:37:28.247Z,170
2016-01-30T09:38:28.987Z,165
2016-01-30T09:39:28.989Z,165
2016-01-30T09:40:29.055Z,160
2016-01-30T09:41:28.995Z,165
2016-01-30T09:42:29.013Z,150
2016-01-30T09:43:29.016Z,140
2016-01-30T09:44:29.037Z,160
2016-01-30T09:45:29.025Z,155
2016-01-30T09:46:28.997Z,160
2016-01-30T09:47:29.077Z,150
2016-01-30T09:48:29.048Z,145
2016-01-30T09:49:29.019Z,145
2016-01-30T09:50:29.039Z,145
2016-01-30T09:51:29.072Z,145
2016-01-30T09:52:29.027Z,150
2016-01-30T09:53:29.031Z,150
2016-01-30T09:54:29.019Z,150
2016-01-30T09:55:28.881Z,150
2016-01-30T09:56:29.055Z,150
2016-01-30T09:57:29.029Z,155
2016-01-30T09:58:29.032Z,155
2016-01-30T09:59:29.065Z,155
2016-01-30T10:00:29.068Z,160
2016-01-30T10:01:29.040Z,160
2016-01-30T10:02:29.073Z,155
2016-01-30T10:03:28.951Z,155
2016-01-30T10:04:29.126Z,155
2016-01-30T10:05:29.097Z,155
2016-01-30T10:06:29.085Z,150
2016-01-30T10:07:29.134Z,145
2016-01-30T10:08:29.073Z,145
2016-01-30T10:09:29.076Z,145
2016-01-30T10:10:29.095Z,140
2016-01-30T10:11:29.066Z,140
2016-01-30T10:12:29.070Z,135
2016-01-30T10:13:29.119Z,135
2016-01-30T10:14:29.076Z,130
2016-01-30T10:15:29.124Z,125
2016-01-30T10:16:29.088Z,125
2016-01-30T10:17:29.123Z,125
2016-01-30T10:18:28.969Z,125
2016-01-30T10:19:29.096Z,120
2016-01-30T10:20:29.162Z,120
2016-01-30T10:21:29.117Z,115
2016-01-30T10:22:29.089Z,115
2016-01-30T10:23:29.107Z,110
2016-01-30T10:24:29.110Z,110
2016-01-30T10:25:29.129Z,105
2016-01-30T10:26:29.098Z,100
2016-01-30T10:27:29.134Z,100
2016-01-30T10:28:29.137Z,95
2016-01-30T10:29:29.090Z,95
2016-01-30T10:30:29.171Z,95
2016-01-30T10:31:29.127Z,90
2016-01-30T10:32:29.130Z,90
2016-01-30T10:33:29.132Z,90
2016-01-30T10:34:29.135Z,85
2016-01-30T10:35:29.296Z,85
2016-01-30T10:36:29.111Z,85
2016-01-30T10:37:29.130Z,85
2016-01-30T10:38:29.116Z,85
2016-01-30T10:39:29.135Z,85
2016-01-30T10:40:29.160Z,85
2016-01-30T10:41:29.163Z,90
2016-01-30T10:42:28.993Z,95
2016-01-30T10:43:29.184Z,90
2016-01-30T10:44:29.141Z,90
2016-01-30T10:45:29.180Z,90
2016-01-30T10:46:29.136Z,90
2016-01-30T10:47:29.154Z,90
2016-01-30T10:48:29.158Z,90
2016-01-30T10:49:29.175Z,90
2016-01-30T10:50:29.213Z,95
2016-01-30T10:51:29.136Z,95
2016-01-30T10:52:29.171Z,95
2016-01-30T10:53:29.142Z,95
2016-01-30T10:54:29.180Z,100
2016-01-30T10:55:29.167Z,95
2016-01-30T10:56:29.185Z,100
2016-01-30T10:57:29.156Z,100
2016-01-30T10:58:29.159Z,100
2016-01-30T10:59:29.179Z,100
2016-01-30T11:00:29.182Z,100
2016-01-30T11:01:29.169Z,100
2016-01-30T11:02:29.172Z,105
2016-01-30T11:03:29.207Z,105
2016-01-30T11:04:29.194Z,110
2016-01-30T11:05:29.169Z,110
2016-01-30T11:06:29.202Z,110
2016-01-30T11:07:29.174Z,115
2016-01-30T11:08:29.177Z,115
2016-01-30T11:09:29.211Z,120
2016-01-30T11:10:29.214Z,120
2016-01-30T11:11:29.248Z,125
2016-01-30T11:12:29.188Z,130
2016-01-30T11:13:29.222Z,130
2016-01-30T11:14:29.196Z,135
2016-01-30T11:15:29.214Z,140
2016-01-30T11:16:29.201Z,145
2016-01-30T11:17:29.238Z,150
2016-01-30T11:18:29.227Z,150
2016-01-30T11:19:29.230Z,150
2016-01-30T11:20:29.202Z,155
2016-01-30T11:21:29.219Z,155
2016-01-30T11:22:29.207Z,160
2016-01-30T11:23:28.491Z,160
2016-01-30T11:24:29.196Z,165
2016-01-30T11:25:29.230Z,165
2016-01-30T11:26:28.500Z,165
2016-01-30T11:27:29.268Z,165
2016-01-30T11:28:29.240Z,165
2016-01-30T11:29:29.665Z,165
2016-01-30T11:30:29.308Z,160
2016-01-30T11:31:28.498Z,160
2016-01-30T11:32:29.236Z,160
2016-01-30T11:33:29.240Z,155
2016-01-30T11:34:29.258Z,155
2016-01-30T11:35:29.324Z,150
2016-01-30T11:36:29.232Z,150
2016-01-30T11:37:29.253Z,150
2016-01-30T11:38:29.256Z,150
2016-01-30T11:39:29.242Z,150
2016-01-30T11:40:29.370Z,155
2016-01-30T11:41:29.282Z,155
2016-01-30T11:42:29.269Z,150
2016-01-30T11:43:29.256Z,145
2016-01-30T11:44:29.243Z,145
2016-01-30T11:45:29.323Z,145
2016-01-30T11:46:29.295Z,145
2016-01-30T11:47:29.300Z,145
2016-01-30T11:48:29.303Z,145
2016-01-30T11:49:29.290Z,140
2016-01-30T11:50:29.293Z,140
2016-01-30T11:51:29.264Z,135
2016-01-30T11:52:29.298Z,135
2016-01-30T11:53:29.270Z,130
2016-01-30T11:54:29.273Z,125
2016-01-30T11:55:29.322Z,125
2016-01-30T11:56:29.280Z,125
2016-01-30T11:57:29.314Z,125
2016-01-30T11:58:29.316Z,125
2016-01-30T11:59:29.304Z,130
2016-01-30T12:00:29.344Z,130
2016-01-30T12:01:29.316Z,135
2016-01-30T12:02:29.287Z,135
2016-01-30T12:03:29.307Z,140
2016-01-30T12:04:29.232Z,145
2016-01-30T12:05:29.229Z,145
2016-01-30T12:06:29.226Z,150
2016-01-30T12:07:29.224Z,155
2016-01-30T12:08:29.221Z,155
2016-01-30T12:09:29.202Z,165
2016-01-30T12:10:29.359Z,170
2016-01-30T12:11:29.533Z,175
2016-01-30T12:12:29.236Z,180
2016-01-30T12:13:29.205Z,185
2016-01-30T12:14:29.238Z,185
2016-01-30T12:15:29.334Z,190
2016-01-30T12:16:29.211Z,195
2016-01-30T12:17:29.223Z,195
2016-01-30T12:18:29.224Z,195
2016-01-30T12:19:29.211Z,200
2016-01-30T12:20:29.261Z,200
2016-01-30T12:21:29.232Z,200
2016-01-30T12:22:29.281Z,195
2016-01-30T12:23:29.236Z,195
2016-01-30T12:24:29.209Z,195
2016-01-30T12:25:29.242Z,200
2016-01-30T12:26:29.230Z,200
2016-01-30T12:27:29.218Z,200
2016-01-30T12:28:29.065Z,200
2016-01-30T12:29:28.488Z,200
2016-01-30T12:30:29.304Z,195
2016-01-30T12:31:29.244Z,195
2016-01-30T12:32:29.263Z,195
2016-01-30T12:33:29.281Z,190
2016-01-30T12:34:29.238Z,185
2016-01-30T12:35:29.241Z,180
2016-01-30T12:36:29.243Z,175
2016-01-30T12:37:29.246Z,170
2016-01-30T12:38:29.108Z,165
2016-01-30T12:39:29.096Z,155
2016-01-30T12:40:29.317Z,145
2016-01-30T12:41:29.273Z,140
2016-01-30T12:42:29.291Z,140
2016-01-30T12:43:29.311Z,140
2016-01-30T12:44:29.282Z,145
2016-01-30T12:45:29.348Z,145
2016-01-30T12:46:29.114Z,150
2016-01-30T12:47:29.272Z,155
2016-01-30T12:48:29.298Z,165
2016-01-30T12:49:29.286Z,165
2016-01-30T12:50:29.273Z,175
2016-01-30T12:51:29.276Z,180
2016-01-30T12:52:29.451Z,185
2016-01-30T12:53:29.298Z,185
2016-01-30T12:54:29.285Z,200
2016-01-30T12:55:29.318Z,200
2016-01-30T12:56:29.306Z,200
2016-01-30T12:57:29.324Z,200
2016-01-30T12:58:29.314Z,185
2016-01-30T12:59:29.300Z,180
2016-01-30T13:00:29.303Z,180
2016-01-30T13:01:29.306Z,175
2016-01-30T13:02:29.340Z,175
2016-01-30T13:03:29.342Z,170
2016-01-30T13:04:29.298Z,170
2016-01-30T13:05:29.317Z,170
2016-01-30T13:06:29.306Z,170
2016-01-30T13:07:29.372Z,165
2016-01-30T13:08:29.359Z,165
2016-01-30T13:09:29.347Z,165
2016-01-30T13:10:29.366Z,165
2016-01-30T13:11:29.368Z,165
2016-01-30T13:12:29.402Z,160
2016-01-30T13:13:29.251Z,160
2016-01-30T13:14:29.410Z,160
2016-01-30T13:15:29.351Z,155
2016-01-30T13:16:29.384Z,155
2016-01-30T13:17:29.404Z,160
2016-01-30T13:18:29.375Z,160
2016-01-30T13:19:29.376Z,170
2016-01-30T13:20:29.379Z,170
2016-01-30T13:21:29.367Z,175
2016-01-30T13:22:29.354Z,175
2016-01-30T13:23:29.404Z,175
2016-01-30T13:24:29.375Z,165
2016-01-30T13:25:29.393Z,160
2016-01-30T13:26:29.412Z,150
2016-01-30T13:27:29.399Z,150
2016-01-30T13:28:29.421Z,150
2016-01-30T13:29:29.407Z,150
2016-01-30T13:30:29.395Z,145
2016-01-30T13:31:29.398Z,145
2016-01-30T13:32:29.400Z,150
2016-01-30T13:33:29.418Z,155
2016-01-30T13:34:29.437Z,160
2016-01-30T13:35:29.517Z,170
2016-01-30T13:36:29.396Z,160
2016-01-30T13:37:29.415Z,155
2016-01-30T13:38:29.449Z,150
2016-01-30T13:39:29.421Z,160
2016-01-30T13:40:29.438Z,165
2016-01-30T13:41:29.441Z,170
2016-01-30T13:42:29.460Z,165
2016-01-30T13:43:29.462Z,160
2016-01-30T13:44:29.434Z,160
2016-01-30T13:45:29.548Z,155
2016-01-30T13:46:29.487Z,150
2016-01-30T13:47:29.897Z,145
2016-01-30T13:48:29.493Z,140
2016-01-30T13:49:29.450Z,135
2016-01-30T13:50:29.469Z,135
2016-01-30T13:51:29.473Z,135
2016-01-30T13:52:29.725Z,135
2016-01-30T13:53:29.306Z,135
2016-01-30T13:54:29.481Z,130
2016-01-30T13:55:29.530Z,120
2016-01-30T13:56:29.487Z,115
2016-01-30T13:57:29.505Z,110
2016-01-30T13:58:29.477Z,105
2016-01-30T13:59:29.494Z,105
2016-01-30T14:00:29.765Z,100
2016-01-30T14:01:29.923Z,100
2016-01-30T14:02:29.879Z,100
2016-01-30T14:03:29.459Z,100
2016-01-30T14:04:29.900Z,100
2016-01-30T14:05:29.886Z,100
2016-01-30T14:06:29.874Z,105
2016-01-30T14:07:29.780Z,100
2016-01-30T14:08:29.565Z,100
2016-01-30T14:09:29.537Z,100
2016-01-30T14:10:29.539Z,100
2016-01-30T14:11:29.545Z,100
2016-01-30T14:12:29.579Z,105
2016-01-30T14:13:29.550Z,105
2016-01-30T14:14:29.521Z,105
2016-01-30T14:15:29.603Z,110
2016-01-30T14:16:29.559Z,115
2016-01-30T14:17:29.581Z,115
2016-01-30T14:18:29.553Z,115